createdAt,value
2022-10-20T00:00:05.105Z,13.96
2022-10-20T00:05:01.910Z,14.06
2022-10-20T00:09:58.506Z,14.13
2022-10-20T00:14:55.080Z,14.57
2022-10-20T00:19:52.430Z,14.70
2022-10-20T00:24:49.145Z,14.05
2022-10-20T00:29:47.638Z,13.60
2022-10-20T00:34:44.165Z,13.78
2022-10-20T00:39:41.640Z,13.85
2022-10-20T00:44:49.202Z,13.69
2022-10-20T00:49:49.212Z,14.17
2022-10-20T00:54:46.728Z,14.51
2022-10-20T00:59:43.718Z,14.41
2022-10-20T01:04:41.499Z,14.23
2022-10-20T01:09:40.777Z,14.04
2022-10-20T01:14:47.671Z,13.83
2022-10-20T01:20:03.154Z,13.74
2022-10-20T01:25:07.357Z,14.36
2022-10-20T01:30:14.609Z,14.71
2022-10-20T01:35:13.925Z,15.12
2022-10-20T01:40:12.748Z,15.29
2022-10-20T01:45:10.628Z,15.27
2022-10-20T01:50:10.289Z,15.33
2022-10-20T01:55:11.067Z,15.14
2022-10-20T02:00:08.949Z,15.11
2022-10-20T02:05:14.525Z,15.08
2022-10-20T02:10:14.650Z,15.22
2022-10-20T02:15:13.323Z,15.19
2022-10-20T02:20:11.231Z,15.10
2022-10-20T02:25:10.167Z,15.21
2022-10-20T02:30:10.689Z,15.22
2022-10-20T02:35:12.308Z,15.32
2022-10-20T02:40:10.444Z,15.45
2022-10-20T02:45:07.748Z,15.48
2022-10-20T02:50:06.363Z,15.41
2022-10-20T02:55:03.211Z,15.27
2022-10-20T03:00:00.479Z,15.27
2022-10-20T03:04:57.348Z,15.31
2022-10-20T03:09:54.165Z,15.37
2022-10-20T03:14:50.860Z,15.28
2022-10-20T03:19:48.181Z,15.15
2022-10-20T03:24:44.767Z,15.07
2022-10-20T03:29:41.455Z,14.63
2022-10-20T03:34:37.950Z,13.79
2022-10-20T03:39:35.150Z,13.67
2022-10-20T03:44:31.723Z,13.06
2022-10-20T03:49:28.281Z,12.62
2022-10-20T03:54:24.831Z,12.67
2022-10-20T03:59:23.564Z,13.09
2022-10-20T04:04:22.372Z,13.61
2022-10-20T04:09:18.957Z,13.73
2022-10-20T04:14:15.531Z,13.69
2022-10-20T04:19:14.716Z,13.98
2022-10-20T04:24:11.442Z,13.91
2022-10-20T04:29:07.960Z,14.04
2022-10-20T04:34:04.577Z,13.95
2022-10-20T04:39:04.952Z,13.78
2022-10-20T04:44:01.556Z,13.87
2022-10-20T04:48:58.398Z,13.84
2022-10-20T04:53:55.114Z,13.45
2022-10-20T04:58:53.269Z,13.92
2022-10-20T05:03:51.035Z,14.00
2022-10-20T05:08:51.830Z,13.90
2022-10-20T05:13:48.958Z,13.97
2022-10-20T05:19:01.638Z,13.97
2022-10-20T05:23:59.109Z,13.87
2022-10-20T05:28:55.724Z,13.79
2022-10-20T05:33:53.930Z,14.00
2022-10-20T05:38:51.713Z,14.05
2022-10-20T05:43:50.641Z,14.09
2022-10-20T05:48:47.357Z,14.12
2022-10-20T05:53:46.416Z,14.13
2022-10-20T05:58:43.948Z,13.88
2022-10-20T06:03:40.749Z,13.97
2022-10-20T06:08:38.583Z,14.14
2022-10-20T06:13:38.424Z,14.17
2022-10-20T06:19:04.073Z,14.27
2022-10-20T06:24:05.658Z,14.39
2022-10-20T06:29:12.004Z,14.54
2022-10-20T06:34:09.816Z,14.69
2022-10-20T06:39:07.959Z,14.95
2022-10-20T06:44:25.240Z,14.86
2022-10-20T06:49:33.255Z,14.99
2022-10-20T06:54:35.692Z,15.11
2022-10-20T07:00:10.391Z,15.12
2022-10-20T07:05:41.089Z,14.99
2022-10-20T07:10:57.580Z,14.92
2022-10-20T07:16:24.272Z,14.88
2022-10-20T07:53:36.504Z,15.35
2022-10-20T08:13:19.469Z,15.21
2022-10-20T08:18:19.621Z,15.64
2022-10-20T08:23:19.489Z,15.72
2022-10-20T08:28:22.243Z,15.49
2022-10-20T08:33:23.462Z,15.97
2022-10-20T08:38:20.681Z,15.95
2022-10-20T08:49:57.064Z,16.24
2022-10-20T08:55:04.098Z,16.38
2022-10-20T09:00:12.848Z,16.12
2022-10-20T09:05:13.958Z,16.39
2022-10-20T09:10:21.948Z,16.46
2022-10-20T09:15:20.484Z,16.34
2022-10-20T09:20:20.620Z,16.80
2022-10-20T09:25:23.345Z,16.69
2022-10-20T09:30:21.073Z,16.60
2022-10-20T09:35:20.088Z,16.53
2022-10-20T09:40:18.132Z,16.85
2022-10-20T09:45:22.708Z,16.95
2022-10-20T09:50:23.201Z,16.53
2022-10-20T09:55:25.218Z,16.63
2022-10-20T10:00:36.826Z,17.03
2022-10-20T10:05:35.368Z,17.06
2022-10-20T10:10:33.088Z,16.81
2022-10-20T10:15:31.933Z,17.32
2022-10-20T10:20:32.503Z,17.39
2022-10-20T10:25:30.267Z,17.04
2022-10-20T10:30:28.938Z,17.07
2022-10-20T10:35:27.613Z,17.12
2022-10-20T10:40:32.262Z,17.37
2022-10-20T10:45:41.057Z,17.33
2022-10-20T10:50:42.562Z,17.37
2022-10-20T10:55:48.803Z,17.06
2022-10-20T11:00:51.809Z,17.43
2022-10-20T11:06:03.990Z,17.04
2022-10-20T11:11:05.656Z,17.14
2022-10-20T11:16:12.659Z,17.38
2022-10-20T11:21:16.930Z,17.66
2022-10-20T11:26:17.586Z,17.73
2022-10-20T11:31:32.227Z,17.50
2022-10-20T11:36:32.558Z,17.69
2022-10-20T11:46:50.966Z,17.91
2022-10-20T11:52:04.709Z,17.41
2022-10-20T11:57:09.667Z,17.93
2022-10-20T12:02:30.772Z,17.71
2022-10-20T12:07:35.337Z,17.69
2022-10-20T12:12:36.775Z,18.02
2022-10-20T12:17:41.431Z,17.98
2022-10-20T12:22:46.571Z,18.07
2022-10-20T12:27:43.707Z,17.94
2022-10-20T12:32:55.258Z,17.87
2022-10-20T12:37:56.603Z,17.78
2022-10-20T12:42:59.459Z,17.47
2022-10-20T12:47:58.484Z,17.11
2022-10-20T12:53:07.228Z,17.39
2022-10-20T12:58:26.247Z,17.16
2022-10-20T13:03:59.736Z,16.84
2022-10-20T13:09:12.861Z,16.97
2022-10-20T13:14:30.813Z,17.35
2022-10-20T13:19:33.284Z,17.09
2022-10-20T13:24:31.344Z,17.30
2022-10-20T13:29:31.391Z,17.25
2022-10-20T13:34:34.684Z,17.00
2022-10-20T13:39:35.077Z,16.92
2022-10-20T13:44:39.386Z,17.08
2022-10-20T13:49:52.569Z,17.05
2022-10-20T13:54:50.711Z,17.15
2022-10-20T13:59:54.768Z,17.27
2022-10-20T14:05:08.507Z,17.38
2022-10-20T14:10:09.231Z,17.22
2022-10-20T14:15:07.485Z,17.37
2022-10-20T14:20:19.995Z,17.20
2022-10-20T14:25:17.280Z,17.37
2022-10-20T14:30:15.506Z,17.49
2022-10-20T14:35:18.038Z,17.39
2022-10-20T14:40:22.289Z,17.27
2022-10-20T14:45:23.034Z,17.02
2022-10-20T14:50:20.948Z,17.02
2022-10-20T14:55:34.546Z,16.75
2022-10-20T15:00:32.968Z,17.22
2022-10-20T15:05:35.553Z,17.23
2022-10-20T15:10:32.226Z,17.37
2022-10-20T15:15:36.158Z,17.42
2022-10-20T15:20:34.345Z,17.57
2022-10-20T15:25:32.637Z,17.48
2022-10-20T15:30:30.928Z,17.43
2022-10-20T15:35:30.314Z,17.52
2022-10-20T15:40:26.890Z,17.50
2022-10-20T15:45:24.641Z,17.47
2022-10-20T15:50:24.242Z,17.35
2022-10-20T15:55:25.158Z,17.23
2022-10-20T16:00:26.317Z,17.22
2022-10-20T16:05:24.687Z,17.13
2022-10-20T16:10:22.264Z,17.02
2022-10-20T16:15:19.046Z,17.10
2022-10-20T16:20:15.720Z,16.99
2022-10-20T16:25:12.968Z,16.88
2022-10-20T16:30:09.745Z,16.83
2022-10-20T16:35:06.636Z,16.86
2022-10-20T16:40:04.638Z,16.94
2022-10-20T16:45:02.103Z,16.95
2022-10-20T16:49:59.819Z,16.89
2022-10-20T16:54:56.683Z,16.86
2022-10-20T16:59:53.601Z,16.71
2022-10-20T17:04:51.292Z,16.64
2022-10-20T17:09:47.846Z,16.55
2022-10-20T17:14:44.447Z,16.50
2022-10-20T17:19:42.641Z,16.25
2022-10-20T17:24:39.837Z,16.27
2022-10-20T17:29:36.752Z,16.13
2022-10-20T17:34:33.560Z,15.95
2022-10-20T17:39:30.110Z,15.88
2022-10-20T17:44:29.951Z,15.90
2022-10-20T17:49:27.351Z,15.83
2022-10-20T17:54:24.003Z,15.85
2022-10-20T17:59:20.792Z,15.71
2022-10-20T18:04:18.401Z,15.66
2022-10-20T18:09:16.924Z,15.25
2022-10-20T18:14:13.659Z,15.28
2022-10-20T18:19:13.746Z,15.16
2022-10-20T18:24:12.041Z,14.99
2022-10-20T18:29:09.620Z,15.01
2022-10-20T18:34:14.458Z,14.95
2022-10-20T18:39:11.833Z,14.62
2022-10-20T18:44:10.777Z,14.71
2022-10-20T18:49:08.091Z,14.54
2022-10-20T18:54:06.017Z,14.65
2022-10-20T18:59:07.363Z,14.49
2022-10-20T19:04:04.704Z,14.50
2022-10-20T19:09:02.383Z,14.32
2022-10-20T19:13:59.426Z,14.33
2022-10-20T19:18:59.048Z,14.23
2022-10-20T19:23:57.375Z,14.13
2022-10-20T19:28:58.639Z,14.12
2022-10-20T19:33:58.094Z,14.05
2022-10-20T19:38:57.364Z,14.04
2022-10-20T19:43:54.235Z,14.17
2022-10-20T19:48:50.997Z,14.12
2022-10-20T19:53:48.774Z,14.01
2022-10-20T19:58:46.713Z,14.45
2022-10-20T20:03:53.552Z,14.56
2022-10-20T20:08:56.394Z,14.65
2022-10-20T20:13:53.600Z,14.04
2022-10-20T20:18:50.248Z,14.40
2022-10-20T20:24:04.386Z,14.33
2022-10-20T20:29:01.774Z,14.20
2022-10-20T20:33:58.392Z,14.49
2022-10-20T20:38:57.402Z,13.97
2022-10-20T20:43:54.963Z,14.14
2022-10-20T20:48:52.247Z,14.26
2022-10-20T20:53:48.914Z,14.08
2022-10-20T20:58:46.940Z,13.98
2022-10-20T21:03:43.550Z,13.52
2022-10-20T21:08:41.416Z,13.35
2022-10-20T21:13:40.401Z,13.42
2022-10-20T21:18:37.156Z,13.40
2022-10-20T21:23:33.885Z,13.75
2022-10-20T21:28:31.220Z,13.39
2022-10-20T21:33:27.940Z,13.50
2022-10-20T21:38:29.161Z,12.99
2022-10-20T21:43:25.948Z,13.37
2022-10-20T21:48:23.653Z,13.27
2022-10-20T21:53:20.452Z,13.44
2022-10-20T21:58:17.417Z,13.50
2022-10-20T22:03:13.949Z,13.34
2022-10-20T22:08:11.414Z,13.17
2022-10-20T22:13:08.687Z,13.45
2022-10-20T22:18:05.499Z,13.76
2022-10-20T22:23:02.907Z,13.79
2022-10-20T22:28:00.289Z,13.61
2022-10-20T22:32:56.800Z,13.26
2022-10-20T22:37:53.401Z,13.13
2022-10-20T22:42:50.255Z,13.05
2022-10-20T22:47:47.616Z,12.93
2022-10-20T22:52:44.307Z,13.10
2022-10-20T22:57:42.326Z,13.23
2022-10-20T23:02:39.184Z,12.93
2022-10-20T23:07:37.594Z,13.20
2022-10-20T23:12:34.269Z,13.19
2022-10-20T23:17:30.851Z,13.32
2022-10-20T23:22:27.382Z,13.39
2022-10-20T23:27:24.852Z,13.53
2022-10-20T23:32:21.620Z,13.23
2022-10-20T23:37:20.404Z,13.00
2022-10-20T23:42:17.334Z,13.01
2022-10-20T23:47:14.525Z,12.80
2022-10-20T23:52:11.097Z,12.85
2022-10-20T23:57:07.710Z,12.33
